createdAt,value
2019-04-04T00:01:40.970Z,3.86
2019-04-04T00:04:08.529Z,3.87
2019-04-04T00:06:35.929Z,3.86
2019-04-04T00:09:03.331Z,3.82
2019-04-04T00:11:30.745Z,3.82
2019-04-04T00:13:58.151Z,3.86
2019-04-04T00:16:25.555Z,3.93
2019-04-04T00:18:52.952Z,3.85
2019-04-04T00:21:20.363Z,3.80
2019-04-04T00:23:47.774Z,3.90
2019-04-04T00:26:15.180Z,3.91
2019-04-04T00:28:44.082Z,3.89
2019-04-04T00:31:10.145Z,3.96
2019-04-04T00:33:37.610Z,3.91
2019-04-04T00:36:05.067Z,3.91
2019-04-04T00:38:32.492Z,3.91
2019-04-04T00:40:59.907Z,3.86
2019-04-04T00:43:27.307Z,3.86
2019-04-04T00:45:54.719Z,3.90
2019-04-04T00:48:22.131Z,3.91
2019-04-04T00:50:49.527Z,3.97
2019-04-04T00:53:16.934Z,4.04
2019-04-04T00:55:45.060Z,4.08
2019-04-04T00:58:11.742Z,4.11
2019-04-04T01:00:39.244Z,4.20
2019-04-04T01:03:06.627Z,4.27
2019-04-04T01:05:34.033Z,4.29
2019-04-04T01:08:01.420Z,4.19
2019-04-04T01:10:28.820Z,4.01
2019-04-04T01:12:56.231Z,3.89
2019-04-04T01:15:23.617Z,3.75
2019-04-04T01:17:51.020Z,3.58
2019-04-04T01:20:20.330Z,3.50
2019-04-04T01:22:45.829Z,3.47
2019-04-04T01:25:13.212Z,3.42
2019-04-04T01:27:40.602Z,3.37
2019-04-04T01:30:08.009Z,3.41
2019-04-04T01:32:35.399Z,3.47
2019-04-04T01:35:02.802Z,3.47
2019-04-04T01:37:30.205Z,3.54
2019-04-04T01:39:57.605Z,3.70
2019-04-04T01:42:25.029Z,3.79
2019-04-04T01:44:52.419Z,3.64
2019-04-04T01:47:19.838Z,3.58
2019-04-04T01:49:47.231Z,3.64
2019-04-04T01:52:14.643Z,3.60
2019-04-04T01:54:42.052Z,3.58
2019-04-04T01:57:09.448Z,3.58
2019-04-04T01:59:36.864Z,3.71
2019-04-04T02:02:04.265Z,3.77
2019-04-04T02:04:31.696Z,3.87
2019-04-04T02:06:59.672Z,3.94
2019-04-04T02:09:26.494Z,3.98
2019-04-04T02:11:53.896Z,4.02
2019-04-04T02:14:21.383Z,4.01
2019-04-04T02:16:51.306Z,4.00
2019-04-04T02:19:16.149Z,4.06
2019-04-04T02:21:43.558Z,4.14
2019-04-04T02:24:10.958Z,4.13
2019-04-04T02:26:38.351Z,4.11
2019-04-04T02:29:05.834Z,4.14
2019-04-04T02:31:34.768Z,4.16
2019-04-04T02:34:05.291Z,4.17
2019-04-04T02:36:29.581Z,4.12
2019-04-04T02:39:01.653Z,4.00
2019-04-04T02:41:29.065Z,3.98
2019-04-04T02:43:59.379Z,4.01
2019-04-04T02:46:23.885Z,4.16
2019-04-04T02:48:53.602Z,4.23
2019-04-04T02:51:18.746Z,4.25
2019-04-04T02:53:46.135Z,4.21
2019-04-04T02:56:13.830Z,4.15
2019-04-04T02:58:41.236Z,4.12
2019-04-04T03:01:08.669Z,4.03
2019-04-04T03:03:36.205Z,3.99
2019-04-04T03:06:03.485Z,3.95
2019-04-04T03:08:30.892Z,4.05
2019-04-04T03:10:58.319Z,4.09
2019-04-04T03:13:25.719Z,4.01
2019-04-04T03:15:53.119Z,3.84
2019-04-04T03:18:20.550Z,3.71
2019-04-04T03:20:50.407Z,3.56
2019-04-04T03:23:15.416Z,3.65
2019-04-04T03:25:44.663Z,3.77
2019-04-04T03:28:10.210Z,3.83
2019-04-04T03:30:37.617Z,3.88
2019-04-04T03:33:05.022Z,3.90
2019-04-04T03:35:32.437Z,3.92
2019-04-04T03:37:59.839Z,3.91
2019-04-04T03:40:27.237Z,3.69
2019-04-04T03:42:54.631Z,3.54
2019-04-04T03:45:26.246Z,3.45
2019-04-04T03:47:49.472Z,3.50
2019-04-04T03:50:16.865Z,3.49
2019-04-04T03:52:44.661Z,3.67
2019-04-04T03:55:11.683Z,3.76
2019-04-04T03:57:39.110Z,3.83
2019-04-04T04:00:07.477Z,3.90
2019-04-04T04:02:33.970Z,3.81
2019-04-04T04:05:02.092Z,3.76
2019-04-04T04:07:28.807Z,3.68
2019-04-04T04:09:59.297Z,3.65
2019-04-04T04:12:23.617Z,3.75
2019-04-04T04:14:53.716Z,3.88
2019-04-04T04:17:18.417Z,3.93
2019-04-04T04:19:45.828Z,4.00
2019-04-04T04:22:17.921Z,4.04
2019-04-04T04:24:40.639Z,4.04
2019-04-04T04:27:08.037Z,4.02
2019-04-04T04:29:35.440Z,3.97
2019-04-04T04:32:02.925Z,3.97
2019-04-04T04:34:33.049Z,3.92
2019-04-04T04:36:57.769Z,3.93
2019-04-04T04:39:25.174Z,3.97
2019-04-04T04:41:54.249Z,3.94
2019-04-04T04:44:20.003Z,4.02
2019-04-04T04:46:49.754Z,4.01
2019-04-04T04:49:14.826Z,4.03
2019-04-04T04:51:44.165Z,4.05
2019-04-04T04:54:09.693Z,4.03
2019-04-04T04:56:37.146Z,4.01
2019-04-04T04:59:04.559Z,3.90
2019-04-04T05:01:31.973Z,3.94
2019-04-04T05:04:02.326Z,4.03
2019-04-04T05:06:26.848Z,4.03
2019-04-04T05:08:54.239Z,3.99
2019-04-04T05:11:22.285Z,4.05
2019-04-04T05:16:23.363Z,4.04
2019-04-04T05:18:50.777Z,4.03
2019-04-04T05:21:24.752Z,4.07
2019-04-04T05:23:46.986Z,3.99
2019-04-04T05:26:13.033Z,3.88
2019-04-04T05:28:42.110Z,3.98
2019-04-04T05:31:08.021Z,4.39
2019-04-04T05:33:35.435Z,4.52
2019-04-04T05:36:04.883Z,4.34
2019-04-04T05:38:30.300Z,4.53
2019-04-04T05:40:57.713Z,4.85
2019-04-04T05:43:25.130Z,5.00
2019-04-04T05:45:52.687Z,4.94
2019-04-04T05:48:20.078Z,5.01
2019-04-04T05:50:47.519Z,5.20
2019-04-04T05:53:14.897Z,5.19
2019-04-04T05:55:42.446Z,5.20
2019-04-04T05:58:09.769Z,5.41
2019-04-04T06:00:37.184Z,5.54
2019-04-04T06:03:04.669Z,5.46
2019-04-04T06:05:32.081Z,5.49
2019-04-04T06:07:59.577Z,5.22
2019-04-04T06:10:26.974Z,4.95
2019-04-04T06:12:56.138Z,4.78
2019-04-04T06:15:21.936Z,4.71
2019-04-04T06:17:49.544Z,4.62
2019-04-04T06:20:17.307Z,4.61
2019-04-04T06:22:44.699Z,4.48
2019-04-04T06:25:12.134Z,4.32
2019-04-04T06:27:40.285Z,4.11
2019-04-04T06:30:06.979Z,4.13
2019-04-04T06:32:34.445Z,4.23
2019-04-04T06:35:01.873Z,4.37
2019-04-04T06:37:29.288Z,4.39
2019-04-04T06:39:58.888Z,4.24
2019-04-04T06:42:24.114Z,4.16
2019-04-04T06:44:54.108Z,4.32
2019-04-04T06:47:18.956Z,4.42
2019-04-04T06:49:46.399Z,4.55
2019-04-04T06:52:13.796Z,4.58
2019-04-04T06:54:41.206Z,4.60
2019-04-04T06:57:08.595Z,4.54
2019-04-04T06:59:36.461Z,4.66
2019-04-04T07:02:05.230Z,4.69
2019-04-04T07:04:31.917Z,4.73
2019-04-04T07:06:59.091Z,4.76
2019-04-04T07:09:25.784Z,4.79
2019-04-04T07:11:53.194Z,4.81
2019-04-04T07:14:20.601Z,4.87
2019-04-04T07:16:48.040Z,4.72
2019-04-04T07:19:15.439Z,4.73
2019-04-04T07:21:42.860Z,4.77
2019-04-04T07:24:10.247Z,4.73
2019-04-04T07:26:37.896Z,4.69
2019-04-04T07:31:39.122Z,4.78
2019-04-04T07:34:06.540Z,4.83
2019-04-04T07:36:33.990Z,4.90
2019-04-04T07:39:01.427Z,4.73
2019-04-04T07:41:28.922Z,4.60
2019-04-04T07:43:58.608Z,4.68
2019-04-04T07:46:23.773Z,4.74
2019-04-04T07:48:51.527Z,4.70
2019-04-04T07:51:18.671Z,4.62
2019-04-04T07:53:46.081Z,4.71
2019-04-04T07:56:14.354Z,4.83
2019-04-04T07:58:40.901Z,4.85
2019-04-04T08:01:08.300Z,4.76
2019-04-04T08:03:35.724Z,4.83
2019-04-04T08:06:03.135Z,4.90
2019-04-04T08:08:30.522Z,4.85
2019-04-04T08:10:57.972Z,4.96
2019-04-04T08:13:25.380Z,4.96
2019-04-04T08:15:52.851Z,5.02
2019-04-04T08:18:20.643Z,5.04
2019-04-04T08:20:48.042Z,5.11
2019-04-04T08:23:15.451Z,5.15
2019-04-04T08:25:42.869Z,5.20
2019-04-04T08:28:10.290Z,5.26
2019-04-04T08:30:37.683Z,5.31
2019-04-04T08:33:05.094Z,5.40
2019-04-04T08:35:32.507Z,5.44
2019-04-04T08:37:59.919Z,5.47
2019-04-04T08:40:27.338Z,5.53
2019-04-04T08:42:54.762Z,5.53
2019-04-04T08:45:22.143Z,5.50
2019-04-04T08:47:49.865Z,5.50
2019-04-04T08:50:17.320Z,5.28
2019-04-04T08:52:44.716Z,5.33
2019-04-04T08:55:12.121Z,5.30
2019-04-04T08:57:39.593Z,5.29
2019-04-04T09:00:07.009Z,5.44
2019-04-04T09:02:34.403Z,5.59
2019-04-04T09:05:11.982Z,5.70
2019-04-04T09:07:29.222Z,5.78
2019-04-04T09:09:56.721Z,5.87
2019-04-04T09:12:24.827Z,5.79
2019-04-04T09:14:52.225Z,5.80
2019-04-04T09:17:19.630Z,5.80
2019-04-04T09:19:47.024Z,5.77
2019-04-04T09:22:15.622Z,5.80
2019-04-04T09:24:42.999Z,5.94
2019-04-04T09:27:10.416Z,6.06
2019-04-04T09:29:37.899Z,6.23
2019-04-04T09:32:05.284Z,6.34
2019-04-04T09:34:32.677Z,6.44
2019-04-04T09:37:00.082Z,6.55
2019-04-04T09:39:27.520Z,6.69
2019-04-04T09:41:54.915Z,6.84
2019-04-04T09:44:22.343Z,6.98
2019-04-04T09:46:49.347Z,7.07
2019-04-04T09:49:16.776Z,7.26
2019-04-04T09:51:43.722Z,7.46
2019-04-04T09:54:11.127Z,7.59
2019-04-04T09:56:38.535Z,7.74
2019-04-04T09:59:05.935Z,7.83
2019-04-04T10:01:33.357Z,7.94
2019-04-04T10:04:00.760Z,8.02
2019-04-04T10:06:27.722Z,8.07
2019-04-04T10:08:55.337Z,8.12
2019-04-04T10:11:23.255Z,8.17
2019-04-04T10:13:50.690Z,8.20
2019-04-04T10:16:18.108Z,8.25
2019-04-04T10:18:45.637Z,8.18
2019-04-04T10:21:13.060Z,7.87
2019-04-04T10:23:40.464Z,7.95
2019-04-04T10:26:07.950Z,8.14
2019-04-04T10:28:35.347Z,8.26
2019-04-04T10:31:02.762Z,8.29
2019-04-04T10:33:29.830Z,8.43
2019-04-04T10:35:56.769Z,8.33
2019-04-04T10:38:23.747Z,8.30
2019-04-04T10:40:50.737Z,8.25
2019-04-04T10:43:18.187Z,8.34
2019-04-04T10:45:45.643Z,8.54
2019-04-04T10:48:13.051Z,8.55
2019-04-04T10:50:40.008Z,8.49
2019-04-04T10:53:07.111Z,8.53
2019-04-04T10:55:34.039Z,8.51
2019-04-04T11:00:35.317Z,8.73
2019-04-04T11:03:02.302Z,8.71
2019-04-04T11:05:29.753Z,8.77
2019-04-04T11:07:57.003Z,8.82
2019-04-04T11:10:23.695Z,8.82
2019-04-04T11:12:51.180Z,9.05
2019-04-04T11:15:18.582Z,9.37
2019-04-04T11:17:45.982Z,9.57
2019-04-04T11:20:13.559Z,9.67
2019-04-04T11:22:40.941Z,9.61
2019-04-04T11:25:08.353Z,9.69
2019-04-04T11:27:35.744Z,9.68
2019-04-04T11:30:03.310Z,9.50
2019-04-04T11:32:30.711Z,9.45
2019-04-04T11:34:58.113Z,9.45
2019-04-04T11:37:26.501Z,9.52
2019-04-04T11:39:55.133Z,9.54
2019-04-04T11:42:21.331Z,9.55
2019-04-04T11:44:48.739Z,9.65
2019-04-04T11:47:16.140Z,9.80
2019-04-04T11:49:43.549Z,9.87
2019-04-04T11:52:10.939Z,9.89
2019-04-04T11:54:38.339Z,9.83
2019-04-04T11:57:05.747Z,9.63
2019-04-04T11:59:33.201Z,9.78
2019-04-04T12:02:00.639Z,10.39
2019-04-04T12:04:28.034Z,10.90
2019-04-04T12:06:55.438Z,11.11
2019-04-04T12:09:22.865Z,10.89
2019-04-04T12:11:50.429Z,11.09
2019-04-04T12:14:17.840Z,11.43
2019-04-04T12:16:45.240Z,11.58
2019-04-04T12:19:12.666Z,11.69
2019-04-04T12:21:40.110Z,12.40
2019-04-04T12:24:07.506Z,12.02
2019-04-04T12:26:34.937Z,12.13
2019-04-04T12:29:02.343Z,12.16
2019-04-04T12:31:29.824Z,11.64
2019-04-04T12:33:57.262Z,11.48
2019-04-04T12:36:25.174Z,11.60
2019-04-04T12:38:52.074Z,11.98
2019-04-04T12:41:19.476Z,12.20
2019-04-04T12:43:46.881Z,12.07
2019-04-04T12:46:14.284Z,12.13
2019-04-04T12:48:41.674Z,12.33
2019-04-04T12:51:09.101Z,12.27
2019-04-04T12:53:36.515Z,12.18
2019-04-04T12:56:04.598Z,12.08
2019-04-04T12:58:32.008Z,11.72
2019-04-04T13:00:59.503Z,12.15
2019-04-04T13:03:26.951Z,12.48
2019-04-04T13:05:54.406Z,12.65
2019-04-04T13:08:21.378Z,13.16
2019-04-04T13:10:48.812Z,13.74
2019-04-04T13:13:15.794Z,13.96
2019-04-04T13:15:42.722Z,14.06
2019-04-04T13:18:10.163Z,14.07
2019-04-04T13:20:37.614Z,13.72
2019-04-04T13:23:05.036Z,13.56
2019-04-04T13:25:31.999Z,13.31
2019-04-04T13:27:58.939Z,13.68
2019-04-04T13:30:26.388Z,13.68
2019-04-04T13:32:53.801Z,13.28
2019-04-04T13:35:20.767Z,12.87
2019-04-04T13:37:48.187Z,13.11
2019-04-04T13:40:15.612Z,13.88
2019-04-04T13:42:43.232Z,14.05
2019-04-04T13:45:10.642Z,13.83
2019-04-04T13:47:40.271Z,13.84
2019-04-04T13:50:06.056Z,14.05
2019-04-04T13:52:33.751Z,14.20
2019-04-04T13:55:01.149Z,14.53
2019-04-04T13:57:28.600Z,14.88
2019-04-04T13:59:56.065Z,15.03
2019-04-04T14:02:23.470Z,15.05
2019-04-04T14:04:51.004Z,15.36
2019-04-04T14:07:18.390Z,15.90
2019-04-04T14:09:45.804Z,16.26
2019-04-04T14:12:14.267Z,16.62
2019-04-04T14:14:40.607Z,16.82
2019-04-04T14:17:08.019Z,16.34
2019-04-04T14:19:35.419Z,15.42
2019-04-04T14:22:03.376Z,14.77
2019-04-04T14:24:30.772Z,14.15
2019-04-04T14:26:58.273Z,13.36
2019-04-04T14:29:27.782Z,11.93
2019-04-04T14:31:53.137Z,11.65
2019-04-04T14:34:20.552Z,11.33
2019-04-04T14:36:48.434Z,11.49
2019-04-04T14:39:15.852Z,11.46
2019-04-04T14:41:43.262Z,11.31
2019-04-04T14:44:10.675Z,11.28
2019-04-04T14:46:39.237Z,11.13
2019-04-04T14:49:05.522Z,10.95
2019-04-04T14:51:32.915Z,11.03
2019-04-04T14:54:00.323Z,11.06
2019-04-04T14:56:29.085Z,11.08
2019-04-04T14:58:55.147Z,11.14
2019-04-04T15:01:22.551Z,11.11
2019-04-04T15:03:50.028Z,11.10
2019-04-04T15:06:17.473Z,11.09
2019-04-04T15:08:44.899Z,11.07
2019-04-04T15:11:23.389Z,11.03
2019-04-04T15:13:39.711Z,11.05
2019-04-04T15:16:09.687Z,11.56
2019-04-04T15:18:36.409Z,12.53
2019-04-04T15:21:03.821Z,13.37
2019-04-04T15:23:31.231Z,14.10
2019-04-04T15:25:58.818Z,14.77
2019-04-04T15:28:26.285Z,15.22
2019-04-04T15:30:53.695Z,14.96
2019-04-04T15:33:21.102Z,14.26
2019-04-04T15:35:48.651Z,13.56
2019-04-04T15:38:16.053Z,13.06
2019-04-04T15:40:43.446Z,12.71
2019-04-04T15:43:10.867Z,12.38
2019-04-04T15:45:38.267Z,12.19
2019-04-04T15:48:05.725Z,11.98
2019-04-04T15:50:33.119Z,11.76
2019-04-04T15:53:00.567Z,11.53
2019-04-04T15:55:28.488Z,11.25
2019-04-04T15:57:55.891Z,11.00
2019-04-04T16:00:23.299Z,10.80
2019-04-04T16:02:50.720Z,10.75
2019-04-04T16:05:18.265Z,10.71
2019-04-04T16:07:45.662Z,10.39
2019-04-04T16:10:13.072Z,10.10
2019-04-04T16:12:40.472Z,10.06
2019-04-04T16:15:07.871Z,10.23
2019-04-04T16:17:35.390Z,10.34
2019-04-04T16:20:02.930Z,10.39
2019-04-04T16:22:30.432Z,10.43
2019-04-04T16:24:57.787Z,10.51
2019-04-04T16:27:25.170Z,10.68
2019-04-04T16:29:52.785Z,10.82
2019-04-04T16:32:20.189Z,10.94
2019-04-04T16:34:47.604Z,11.02
2019-04-04T16:37:15.580Z,10.94
2019-04-04T16:39:42.967Z,10.93
2019-04-04T16:42:10.550Z,10.87
2019-04-04T16:44:38.140Z,10.50
2019-04-04T16:47:05.750Z,10.05
2019-04-04T16:49:33.162Z,9.77
2019-04-04T16:52:00.562Z,9.65
2019-04-04T16:54:27.953Z,9.37
2019-04-04T16:56:55.351Z,9.14
2019-04-04T16:59:22.749Z,9.08
2019-04-04T17:01:50.326Z,8.94
2019-04-04T17:04:17.734Z,9.04
2019-04-04T17:06:45.145Z,8.99
2019-04-04T17:09:12.532Z,8.88
2019-04-04T17:11:40.002Z,8.72
2019-04-04T17:14:07.390Z,8.47
2019-04-04T17:16:34.811Z,8.22
2019-04-04T17:19:02.206Z,8.24
2019-04-04T17:21:29.603Z,8.28
2019-04-04T17:23:57.014Z,8.07
2019-04-04T17:26:24.451Z,7.85
2019-04-04T17:28:52.380Z,7.70
2019-04-04T17:31:19.457Z,7.61
2019-04-04T17:33:47.107Z,7.54
2019-04-04T17:36:14.396Z,7.44
2019-04-04T17:38:41.832Z,7.40
2019-04-04T17:41:09.239Z,7.39
2019-04-04T17:43:36.904Z,7.46
2019-04-04T17:46:04.491Z,7.41
2019-04-04T17:48:32.956Z,7.38
2019-04-04T17:50:59.711Z,7.30
2019-04-04T17:53:26.966Z,7.29
2019-04-04T17:55:55.437Z,7.24
2019-04-04T17:58:21.806Z,7.14
2019-04-04T18:00:48.893Z,7.03
2019-04-04T18:03:16.328Z,6.97
2019-04-04T18:05:43.740Z,6.92
2019-04-04T18:08:11.155Z,6.92
2019-04-04T18:10:38.563Z,6.82
2019-04-04T18:13:06.009Z,6.81
2019-04-04T18:15:33.417Z,6.82
2019-04-04T18:18:00.852Z,6.78
2019-04-04T18:20:28.265Z,6.81
2019-04-04T18:22:55.676Z,6.76
2019-04-04T18:25:23.076Z,6.69
2019-04-04T18:27:50.469Z,6.63
2019-04-04T18:30:17.990Z,6.63
2019-04-04T18:32:45.376Z,6.61
2019-04-04T18:35:12.928Z,6.52
2019-04-04T18:37:40.323Z,6.52
2019-04-04T18:40:07.673Z,6.50
2019-04-04T18:42:35.252Z,6.46
2019-04-04T18:45:02.769Z,6.48
2019-04-04T18:47:30.212Z,6.43
2019-04-04T18:49:57.629Z,6.38
2019-04-04T18:52:25.021Z,6.40
2019-04-04T18:54:52.436Z,6.39
2019-04-04T18:57:19.853Z,6.42
2019-04-04T18:59:47.290Z,6.36
2019-04-04T19:02:14.682Z,6.38
2019-04-04T19:04:42.195Z,6.42
2019-04-04T19:07:09.589Z,6.45
2019-04-04T19:09:37.008Z,6.42
2019-04-04T19:12:04.423Z,6.35
2019-04-04T19:14:31.854Z,6.29
2019-04-04T19:16:59.311Z,6.23
2019-04-04T19:19:26.723Z,6.21
2019-04-04T19:21:54.126Z,6.18
2019-04-04T19:24:21.551Z,6.20
2019-04-04T19:26:48.949Z,6.23
2019-04-04T19:29:16.578Z,6.28
2019-04-04T19:31:43.966Z,6.32
2019-04-04T19:34:11.351Z,6.31
2019-04-04T19:36:41.707Z,6.30
2019-04-04T19:39:06.284Z,6.25
2019-04-04T19:41:33.696Z,6.23
2019-04-04T19:44:01.111Z,6.26
2019-04-04T19:46:37.061Z,6.23
2019-04-04T19:48:55.952Z,6.20
2019-04-04T19:51:23.362Z,6.17
2019-04-04T19:53:50.777Z,6.25
2019-04-04T19:56:18.218Z,6.19
2019-04-04T19:58:45.653Z,6.11
2019-04-04T20:01:13.038Z,6.02
2019-04-04T20:03:40.479Z,5.97
2019-04-04T20:06:08.969Z,6.01
2019-04-04T20:08:36.355Z,5.99
2019-04-04T20:11:03.765Z,6.06
2019-04-04T20:13:31.538Z,6.22
2019-04-04T20:15:58.727Z,6.27
2019-04-04T20:18:26.124Z,6.32
2019-04-04T20:20:53.532Z,6.26
2019-04-04T20:23:20.947Z,6.22
2019-04-04T20:25:48.341Z,6.27
2019-04-04T20:28:15.809Z,6.36
2019-04-04T20:30:43.276Z,6.44
2019-04-04T20:33:10.642Z,6.51
2019-04-04T20:35:38.155Z,6.54
2019-04-04T20:38:05.595Z,6.58
2019-04-04T20:40:32.982Z,6.55
2019-04-04T20:43:00.404Z,6.35
2019-04-04T20:45:27.798Z,6.26
2019-04-04T20:47:55.207Z,6.30
2019-04-04T20:50:22.663Z,6.34
2019-04-04T20:52:50.223Z,6.38
2019-04-04T20:55:17.689Z,6.39
2019-04-04T20:57:45.151Z,6.24
2019-04-04T21:00:12.702Z,6.13
2019-04-04T21:02:40.107Z,6.21
2019-04-04T21:05:07.496Z,6.20
2019-04-04T21:07:34.906Z,6.06
2019-04-04T21:10:02.467Z,5.99
2019-04-04T21:12:29.979Z,6.03
2019-04-04T21:14:57.543Z,6.02
2019-04-04T21:17:24.950Z,5.93
2019-04-04T21:19:52.335Z,5.88
2019-04-04T21:22:27.402Z,5.85
2019-04-04T21:24:47.269Z,5.90
2019-04-04T21:27:14.826Z,5.89
2019-04-04T21:29:42.212Z,6.01
2019-04-04T21:32:09.609Z,5.96
2019-04-04T21:34:37.015Z,5.97
2019-04-04T21:37:04.499Z,5.96
2019-04-04T21:39:32.035Z,5.94
2019-04-04T21:41:59.431Z,5.96
2019-04-04T21:44:26.846Z,5.97
2019-04-04T21:46:54.252Z,6.06
2019-04-04T21:49:21.653Z,6.07
2019-04-04T21:51:49.070Z,5.85
2019-04-04T21:54:16.459Z,5.87
2019-04-04T21:56:43.885Z,5.90
2019-04-04T21:59:11.309Z,5.83
2019-04-04T22:01:38.724Z,5.70
2019-04-04T22:04:06.218Z,5.66
2019-04-04T22:06:33.634Z,5.65
2019-04-04T22:09:01.098Z,5.55
2019-04-04T22:11:28.534Z,5.40
2019-04-04T22:13:55.916Z,5.31
2019-04-04T22:16:23.363Z,5.32
2019-04-04T22:18:50.760Z,5.32
2019-04-04T22:21:18.179Z,5.32
2019-04-04T22:23:45.592Z,5.41
2019-04-04T22:26:13.187Z,5.41
2019-04-04T22:28:40.566Z,5.45
2019-04-04T22:31:08.870Z,5.51
2019-04-04T22:33:36.270Z,5.48
2019-04-04T22:36:03.687Z,5.38
2019-04-04T22:38:31.086Z,5.28
2019-04-04T22:40:58.539Z,5.39
2019-04-04T22:43:26.023Z,5.48
2019-04-04T22:45:53.464Z,5.55
2019-04-04T22:48:20.863Z,5.62
2019-04-04T22:50:48.257Z,5.75
2019-04-04T22:53:15.664Z,5.74
2019-04-04T22:55:43.062Z,5.75
2019-04-04T22:58:10.507Z,5.82
2019-04-04T23:00:37.916Z,5.93
2019-04-04T23:03:05.314Z,6.01
2019-04-04T23:05:32.731Z,6.10
2019-04-04T23:08:00.125Z,6.10
2019-04-04T23:10:27.530Z,6.03
2019-04-04T23:12:54.919Z,5.96
2019-04-04T23:15:22.322Z,5.91
2019-04-04T23:17:49.754Z,6.00
2019-04-04T23:20:17.445Z,6.01
2019-04-04T23:22:52.761Z,6.05
2019-04-04T23:25:12.244Z,6.02
2019-04-04T23:27:39.718Z,6.01
2019-04-04T23:30:07.644Z,5.92
2019-04-04T23:32:35.043Z,5.79
2019-04-04T23:35:02.457Z,5.77
2019-04-04T23:37:29.874Z,5.71
2019-04-04T23:39:57.505Z,5.64
2019-04-04T23:42:24.914Z,5.58
2019-04-04T23:45:00.754Z,5.56
2019-04-04T23:47:19.815Z,5.59
2019-04-04T23:49:47.220Z,5.63
2019-04-04T23:52:14.634Z,5.71
2019-04-04T23:54:42.042Z,5.85
2019-04-04T23:57:09.442Z,5.96
2019-04-04T23:59:36.848Z,5.97
